Time;durP1;ratioP1;P1;durP2;ratioP2;P2;SDS_P1;SDS_P2;PMS_P1;PMS_P2;Temp;Humidity;BMP_temperature;BMP_pressure;BME280_temperature;BME280_humidity;BME280_pressure;Samples;Min_cycle;Max_cycle;Signal;HPM_P1;HPM_P2
2023/01/30 00:01:34;;;;;;;13.57;6.13;;;;;;;;;;4810383;29;20058;-91
2023/01/30 00:04:00;;;;;;;14.45;6.45;;;;;;;;;;4810655;29;20050;-89
2023/01/30 00:06:26;;;;;;;10.73;5.50;;;;;;;;;;4810382;29;20092;-89
2023/01/30 00:08:52;;;;;;;13.98;5.60;;;;;;;;;;4809972;29;20046;-88
2023/01/30 00:11:19;;;;;;;10.25;4.45;;;;;;;;;;4810109;29;20062;-90
2023/01/30 00:13:46;;;;;;;13.40;4.68;;;;;;;;;;4810318;29;20057;-90
2023/01/30 00:16:12;;;;;;;9.13;4.75;;;;;;;;;;4809841;29;20054;-91
2023/01/30 00:18:42;;;;;;;9.90;4.90;;;;;;;;;;4810012;29;20058;-91
2023/01/30 00:21:09;;;;;;;20.88;5.32;;;;;;;;;;4809703;29;20104;-92
2023/01/30 00:23:36;;;;;;;13.38;5.60;;;;;;;;;;4810027;29;20054;-90
2023/01/30 00:26:02;;;;;;;5.38;3.33;;;;;;;;;;4809884;29;20088;-92
2023/01/30 00:28:28;;;;;;;11.68;5.22;;;;;;;;;;4809890;29;20111;-91
2023/01/30 00:30:55;;;;;;;9.80;4.95;;;;;;;;;;4809857;29;20121;-93
2023/01/30 00:33:22;;;;;;;11.23;4.15;;;;;;;;;;4810360;29;20140;-92
2023/01/30 00:35:49;;;;;;;8.10;3.75;;;;;;;;;;4809786;29;20153;-91
2023/01/30 00:38:16;;;;;;;12.07;3.97;;;;;;;;;;4779729;29;20050;-90
2023/01/30 00:40:43;;;;;;;12.40;5.13;;;;;;;;;;4809671;29;20069;-89
2023/01/30 00:48:42;;;;;;;14.77;5.75;;;;;;;;;;4809013;29;20141;-88
2023/01/30 00:51:08;;;;;;;8.48;4.43;;;;;;;;;;4809046;29;20046;-88
2023/01/30 00:53:34;;;;;;;9.77;4.72;;;;;;;;;;4779197;29;20058;-90
2023/01/30 00:56:00;;;;;;;12.57;5.55;;;;;;;;;;4808864;29;20481;-88
2023/01/30 00:58:26;;;;;;;11.65;5.05;;;;;;;;;;4794158;29;20145;-88
2023/01/30 01:00:54;;;;;;;11.48;5.68;;;;;;;;;;4778791;29;20556;-88
2023/01/30 01:03:20;;;;;;;20.70;4.13;;;;;;;;;;4778644;29;20058;-89
2023/01/30 01:05:46;;;;;;;9.02;5.15;;;;;;;;;;4779263;29;20525;-87
2023/01/30 01:08:12;;;;;;;10.85;4.28;;;;;;;;;;4778786;29;20141;-89
2023/01/30 01:10:38;;;;;;;5.95;4.05;;;;;;;;;;4793573;29;20069;-86
2023/01/30 01:13:05;;;;;;;16.50;5.20;;;;;;;;;;4808776;29;20412;-86
2023/01/30 01:15:32;;;;;;;11.65;4.05;;;;;;;;;;4808345;29;20054;-88
2023/01/30 01:17:58;;;;;;;6.38;3.30;;;;;;;;;;4808777;29;20069;-89
2023/01/30 01:20:24;;;;;;;7.10;4.25;;;;;;;;;;4808529;29;20046;-87
2023/01/30 01:22:54;;;;;;;5.13;3.30;;;;;;;;;;4808497;29;20109;-88
2023/01/30 01:25:20;;;;;;;7.18;4.18;;;;;;;;;;4808335;29;20149;-86
2023/01/30 01:27:47;;;;;;;6.75;3.78;;;;;;;;;;4808647;29;20489;-89
2023/01/30 01:30:13;;;;;;;10.25;4.55;;;;;;;;;;4808187;29;20050;-88
2023/01/30 01:32:40;;;;;;;8.70;3.92;;;;;;;;;;4808484;29;20093;-87
2023/01/30 01:35:06;;;;;;;9.10;5.03;;;;;;;;;;4793275;29;20062;-88
2023/01/30 01:37:32;;;;;;;8.57;4.03;;;;;;;;;;4808363;29;20115;-89
2023/01/30 01:42:43;;;;;;;8.82;4.00;;;;;;;;;;4795655;29;20057;-88
2023/01/30 01:45:12;;;;;;;6.70;4.07;;;;;;;;;;4793448;29;20397;-90
2023/01/30 01:47:40;;;;;;;9.60;5.38;;;;;;;;;;4808074;29;20488;-88
2023/01/30 01:50:08;;;;;;;14.18;4.70;;;;;;;;;;4808346;29;20460;-87
2023/01/30 01:52:35;;;;;;;10.95;4.70;;;;;;;;;;4808578;29;20563;-89
2023/01/30 01:55:04;;;;;;;11.15;5.25;;;6.80;99.90;;;;;;4778347;29;20492;-90
2023/01/30 01:57:33;;;;;;;14.07;4.57;;;;;;;;;;4793285;29;20081;-88
2023/01/30 02:00:10;;;;;;;12.30;5.28;;;;;;;;;;4808944;29;20062;-89
2023/01/30 02:02:37;;;;;;;11.80;5.30;;;;;;;;;;4807837;29;20059;-87
2023/01/30 02:05:05;;;;;;;17.90;8.93;;;;;;;;;;4810199;29;20420;-87
2023/01/30 02:07:40;;;;;;;18.77;5.72;;;;;;;;;;4812082;29;20143;-87
2023/01/30 02:10:07;;;;;;;11.90;5.00;;;;;;;;;;4827393;29;20058;-88
2023/01/30 02:12:33;;;;;;;22.30;6.07;;;;;;;;;;4812176;29;20050;-88
2023/01/30 02:15:00;;;;;;;9.25;4.97;;;;;;;;;;4812137;29;20059;-88
2023/01/30 02:17:26;;;;;;;13.55;5.38;;;;;;;;;;4797210;29;20051;-86
2023/01/30 02:19:58;;;;;;;13.23;5.00;;;;;;;;;;4811921;29;20653;-88
2023/01/30 02:23:01;;;;;;;12.38;5.05;;;7.00;99.90;;;;;;4811683;29;20054;-89
2023/01/30 02:25:41;;;;;;;17.20;5.53;;;;;;;;;;4811585;29;20424;-88
2023/01/30 02:28:22;;;;;;;20.40;5.32;;;;;;;;;;4812002;29;20046;-89
2023/01/30 02:30:57;;;;;;;11.15;4.72;;;;;;;;;;4811692;29;20070;-93
2023/01/30 02:33:38;;;;;;;15.70;5.72;;;;;;;;;;4811361;29;20051;-93
2023/01/30 02:36:07;;;;;;;24.25;5.53;;;;;;;;;;4811553;29;20059;-92
2023/01/30 02:38:48;;;;;;;24.10;7.93;;;7.10;99.90;;;;;;4811386;29;20061;-92
2023/01/30 02:41:27;;;;;;;15.43;4.28;;;;;;;;;;4811270;29;20063;-92
2023/01/30 02:44:31;;;;;;;17.40;5.60;;;;;;;;;;4811698;29;20130;-94
2023/01/30 02:47:07;;;;;;;17.35;5.50;;;;;;;;;;4741986;30;20575;-87
2023/01/30 02:49:37;;;;;;;17.30;4.78;;;;;;;;;;4742117;30;20056;-89
2023/01/30 02:52:05;;;;;;;16.95;4.70;;;;;;;;;;4787536;29;20061;-93
2023/01/30 02:54:31;;;;;;;18.20;4.45;;;;;;;;;;4826376;29;20416;-94
2023/01/30 02:56:58;;;;;;;20.48;4.55;;;;;;;;;;4811470;29;20137;-91
2023/01/30 02:59:30;;;;;;;12.75;4.55;;;;;;;;;;4811029;29;20114;-90
2023/01/30 03:02:08;;;;;;;15.68;5.47;;;;;;;;;;4811017;29;20054;-91
2023/01/30 03:04:57;;;;;;;28.10;4.55;;;;;;;;;;4810926;29;20066;-94
2023/01/30 03:07:52;;;;;;;16.52;4.93;;;7.20;99.90;;;;;;4795661;29;20058;-92
2023/01/30 03:10:23;;;;;;;13.23;3.28;;;;;;;;;;4796304;29;20519;-90
2023/01/30 03:12:58;;;;;;;13.35;4.07;;;;;;;;;;4810831;29;20112;-90
2023/01/30 03:15:35;;;;;;;24.20;5.28;;;;;;;;;;4809637;29;20062;-91
2023/01/30 03:18:01;;;;;;;11.30;3.85;;;;;;;;;;4810733;29;20061;-87
2023/01/30 03:20:28;;;;;;;18.08;4.32;;;;;;;;;;4810691;29;20054;-91
2023/01/30 03:22:54;;;;;;;22.13;5.53;;;;;;;;;;4810643;29;20523;-94
2023/01/30 03:25:21;;;;;;;14.32;3.40;;;;;;;;;;4810563;29;20085;-95
2023/01/30 03:27:50;;;;;;;13.57;3.75;;;;;;;;;;4810511;29;20488;-94
2023/01/30 03:30:16;;;;;;;16.75;3.88;;;;;;;;;;4810477;29;20054;-88
2023/01/30 03:32:42;;;;;;;25.27;4.38;;;;;;;;;;4811229;29;20065;-90
2023/01/30 03:35:08;;;;;;;13.65;5.00;;;;;;;;;;4810893;29;20054;-90
2023/01/30 03:37:34;;;;;;;11.55;4.13;;;;;;;;;;4796151;29;20062;-91
2023/01/30 03:40:01;;;;;;;12.75;3.60;;;;;;;;;;4810375;29;20146;-89
2023/01/30 03:42:27;;;;;;;14.35;3.28;;;;;;;;;;4810657;29;20066;-88
2023/01/30 03:44:53;;;;;;;14.68;4.40;;;;;;;;;;4810859;29;20076;-90
2023/01/30 03:47:19;;;;;;;18.73;6.45;;;;;;;;;;4780541;29;20058;-91
2023/01/30 03:49:45;;;;;;;18.15;4.57;;;;;;;;;;4780986;29;20056;-92
2023/01/30 03:52:11;;;;;;;10.25;3.95;;;;;;;;;;4811225;29;20184;-90
2023/01/30 03:54:37;;;;;;;13.02;3.45;;;;;;;;;;4796665;29;20062;-90
2023/01/30 03:57:06;;;;;;;19.42;4.93;;;;;;;;;;4826365;29;20123;-92
2023/01/30 03:59:32;;;;;;;21.48;4.70;;;;;;;;;;4781354;29;20054;-92
2023/01/30 04:01:58;;;;;;;19.20;5.22;;;;;;;;;;4780167;29;20093;-88
2023/01/30 04:04:24;;;;;;;14.98;4.20;;;;;;;;;;4795191;29;20058;-91
2023/01/30 04:06:50;;;;;;;12.35;4.53;;;;;;;;;;4810152;29;20054;-91
2023/01/30 04:09:16;;;;;;;21.25;4.93;;;;;;;;;;4810206;29;20054;-91
2023/01/30 04:11:42;;;;;;;20.25;4.57;;;;;;;;;;4780624;29;20401;-96
2023/01/30 04:14:08;;;;;;;20.85;4.53;;;;;;;;;;4810658;29;20491;-93
2023/01/30 04:16:35;;;;;;;19.83;4.25;;;;;;;;;;4810182;29;20424;-90
2023/01/30 04:19:01;;;;;;;18.58;5.75;;;;;;;;;;4810350;29;20077;-91
2023/01/30 04:21:27;;;;;;;16.98;4.25;;;;;;;;;;4810267;29;20505;-94
2023/01/30 04:23:53;;;;;;;23.95;4.43;;;;;;;;;;4780479;29;20463;-92
2023/01/30 04:26:19;;;;;;;13.23;5.28;;;;;;;;;;4779914;29;20137;-90
2023/01/30 04:28:45;;;;;;;17.88;6.68;;;;;;;;;;4779730;29;20065;-92
2023/01/30 04:31:11;;;;;;;22.33;5.75;;;;;;;;;;4795207;29;20488;-92
2023/01/30 04:33:38;;;;;;;23.80;5.38;;;;;;;;;;4809963;29;20141;-96
2023/01/30 04:36:05;;;;;;;15.13;4.35;;;;;;;;;;4810274;29;20143;-95
2023/01/30 04:38:32;;;;;;;14.88;4.38;;;;;;;;;;4809840;29;20051;-95
2023/01/30 04:40:59;;;;;;;14.60;4.65;;;;;;;;;;4809849;29;20530;-95
2023/01/30 04:43:25;;;;;;;12.57;2.78;;;;;;;;;;4810408;29;20127;-95
2023/01/30 04:45:52;;;;;;;21.10;4.65;;;;;;;;;;4780256;29;20133;-95
2023/01/30 04:48:18;;;;;;;19.85;4.68;;;;;;;;;;4810031;29;20508;-94
2023/01/30 04:50:47;;;;;;;18.08;4.90;;;;;;;;;;4810192;29;20451;-88
2023/01/30 04:53:13;;;;;;;34.22;6.30;;;;;;;;;;4809427;29;20058;-89
2023/01/30 04:55:39;;;;;;;19.83;4.28;;;;;;;;;;4809135;29;20092;-90
2023/01/30 04:58:06;;;;;;;16.02;4.00;;;;;;;;;;4779504;29;20058;-90
2023/01/30 05:00:32;;;;;;;25.15;4.70;;;;;;;;;;4809283;29;20441;-88
2023/01/30 05:02:58;;;;;;;17.65;4.18;;;;;;;;;;4779127;29;20197;-87
2023/01/30 05:05:25;;;;;;;23.67;4.18;;;;;;;;;;4779171;29;20572;-89
2023/01/30 05:07:51;;;;;;;15.20;4.32;;;;;;;;;;4809032;29;20065;-90
2023/01/30 05:10:17;;;;;;;13.52;3.53;;;;;;;;;;4794312;29;20062;-89
2023/01/30 05:12:44;;;;;;;14.63;4.10;;;;;;;;;;4779577;29;20062;-87
2023/01/30 05:15:10;;;;;;;25.67;5.20;;;;;;;;;;4808863;29;20091;-88
2023/01/30 05:17:36;;;;;;;18.42;4.15;;;;;;;;;;4808922;29;20062;-90
2023/01/30 05:20:03;;;;;;;22.48;4.88;;;;;;;;;;4794544;29;20046;-94
2023/01/30 05:22:29;;;;;;;14.40;4.50;;;;;;;;;;4778845;29;20515;-89
2023/01/30 05:24:55;;;;;;;20.55;4.60;;;;;;;;;;4778942;29;20504;-88
2023/01/30 05:27:21;;;;;;;15.90;4.90;;;;;;;;;;4778691;29;20104;-89
2023/01/30 05:29:47;;;;;;;16.63;4.15;;;;;;;;;;4778778;29;20141;-91
2023/01/30 05:32:14;;;;;;;22.00;4.57;;;;;;;;;;4778655;29;20184;-88
2023/01/30 05:34:40;;;;;;;11.77;3.72;;;;;;;;;;4778672;29;20058;-89
2023/01/30 05:37:06;;;;;;;25.27;5.80;;;;;;;;;;4808577;29;20054;-89
2023/01/30 05:39:32;;;;;;;11.68;3.22;;;;;;;;;;4807753;29;20058;-91
2023/01/30 05:41:58;;;;;;;21.67;4.43;;;;;;;;;;4809172;29;20057;-90
2023/01/30 05:44:25;;;;;;;26.20;6.50;;;;;;;;;;4810073;29;20107;-90
2023/01/30 05:46:51;;;;;;;27.05;4.60;;;;;;;;;;4809330;29;20062;-91
2023/01/30 05:49:19;;;;;;;19.17;4.90;;;;;;;;;;4779848;29;20051;-89
2023/01/30 05:51:45;;;;;;;16.30;5.15;;;;;;;;;;4808870;29;20054;-88
2023/01/30 05:54:11;;;;;;;15.13;4.57;;;;;;;;;;4809675;29;20042;-88
2023/01/30 05:56:38;;;;;;;16.13;5.05;;;;;;;;;;4809597;29;20504;-88
2023/01/30 05:59:04;;;;;;;8.57;3.40;;;;;;;;;;4808981;29;20512;-88
2023/01/30 06:01:30;;;;;;;24.30;4.85;;;;;;;;;;4808830;29;20054;-90
2023/01/30 06:03:57;;;;;;;15.43;3.42;;;;;;;;;;4809107;29;20114;-90
2023/01/30 06:06:23;;;;;;;17.60;4.20;;;;;;;;;;4808731;29;20064;-89
2023/01/30 06:08:54;;;;;;;17.45;4.55;;;;;;;;;;4808794;29;20088;-87
2023/01/30 06:11:20;;;;;;;14.82;3.72;;;;;;;;;;4809400;29;20059;-87
2023/01/30 06:13:49;;;;;;;21.70;3.88;;;;;;;;;;4809610;29;20050;-89
2023/01/30 06:16:16;;;;;;;16.98;3.75;;;;;;;;;;4780068;29;20054;-92
2023/01/30 06:18:42;;;;;;;20.42;4.50;;;;;;;;;;4809076;29;20137;-90
2023/01/30 06:21:09;;;;;;;16.92;4.70;;;;;;;;;;4808925;29;20061;-91
2023/01/30 06:23:35;;;;;;;26.75;5.28;;;;;;;;;;4809144;29;20175;-89
2023/01/30 06:26:02;;;;;;;13.02;2.95;;;;;;;;;;4808979;29;20054;-92
2023/01/30 06:28:28;;;;;;;18.77;4.22;;;;;;;;;;4779220;29;20057;-92
2023/01/30 06:30:54;;;;;;;15.63;3.83;;;;;;;;;;4779340;29;20105;-90
2023/01/30 06:33:20;;;;;;;23.48;4.53;;;;;;;;;;4809022;29;20223;-91
2023/01/30 06:35:48;;;;;;;23.20;3.58;;;;;;;;;;4809419;29;20145;-93
2023/01/30 06:38:19;;;;;;;18.50;5.05;;;;;;;;;;4808897;29;20497;-89
2023/01/30 06:40:46;;;;;;;17.90;3.45;;;;;;;;;;4808944;29;20140;-88
2023/01/30 06:43:13;;;;;;;22.15;6.90;;;;;;;;;;4808150;29;20157;-92
2023/01/30 06:45:42;;;;;;;15.63;5.60;;;;;;;;;;4809070;29;20062;-88
2023/01/30 06:48:08;;;;;;;19.58;4.25;;;;;;;;;;4808957;29;20073;-90
2023/01/30 06:50:35;;;;;;;18.25;3.03;;;;;;;;;;4810108;29;20061;-90
2023/01/30 06:53:02;;;;;;;19.98;4.47;;;;;;;;;;4782444;29;20123;-89
2023/01/30 06:55:28;;;;;;;17.55;4.55;;;;;;;;;;4782401;29;20061;-90
2023/01/30 06:58:08;;;;;;;13.73;3.60;;;;;;;;;;4782063;29;20519;-91
2023/01/30 07:00:34;;;;;;;14.25;4.07;;;;;;;;;;4812087;29;20137;-91
2023/01/30 07:03:00;;;;;;;13.75;4.30;;;;;;;;;;4781615;29;20145;-89
2023/01/30 07:05:27;;;;;;;22.00;4.35;;;;;;;;;;4811853;29;20050;-93
2023/01/30 07:07:54;;;;;;;20.85;4.32;;;;;;;;;;4812267;29;20058;-92
2023/01/30 07:10:20;;;;;;;29.83;5.78;;;;;;;;;;4781853;29;20086;-92
2023/01/30 07:12:47;;;;;;;26.05;5.55;;;;;;;;;;4811730;29;20195;-93
2023/01/30 07:15:13;;;;;;;15.13;4.10;;;;;;;;;;4811754;29;20133;-93
2023/01/30 07:17:40;;;;;;;26.27;3.85;;;;;;;;;;4811948;29;20105;-89
2023/01/30 07:20:07;;;;;;;17.73;3.47;;;;;;;;;;4811782;29;20385;-92
2023/01/30 07:22:33;;;;;;;18.55;4.10;;;;;;;;;;4781529;29;20198;-92
2023/01/30 07:24:59;;;;;;;18.13;4.40;;;;;;;;;;4810996;29;20054;-93
2023/01/30 07:27:25;;;;;;;26.17;3.95;;;;;;;;;;4811582;29;20073;-88
2023/01/30 07:29:51;;;;;;;27.35;3.90;;;;;;;;;;4810826;29;20065;-87
2023/01/30 07:32:18;;;;;;;18.45;5.90;;;;;;;;;;4780197;29;20119;-87
2023/01/30 07:34:45;;;;;;;23.48;4.88;;;;;;;;;;4810835;29;20092;-91
2023/01/30 07:37:11;;;;;;;18.27;4.60;;;;;;;;;;4811468;29;20108;-91
2023/01/30 07:39:37;;;;;;;14.60;3.90;;;;;;;;;;4811215;29;20137;-92
2023/01/30 07:42:04;;;;;;;20.40;6.95;;;;;;;;;;4811963;29;20119;-92
2023/01/30 07:44:30;;;;;;;16.95;4.95;;;;;;;;;;4811926;29;20147;-92
2023/01/30 07:46:59;;;;;;;16.92;4.55;;;;;;;;;;4812652;29;20054;-92
2023/01/30 07:49:26;;;;;;;14.27;5.32;;;;;;;;;;4811889;29;20061;-92
2023/01/30 07:51:52;;;;;;;19.45;5.25;;;;;;;;;;4812173;29;20106;-92
2023/01/30 07:54:18;;;;;;;18.20;4.78;;;;;;;;;;4811865;29;20523;-91
2023/01/30 07:56:47;;;;;;;28.67;4.43;;;;;;;;;;4811693;29;20054;-94
2023/01/30 07:59:13;;;;;;;12.88;3.70;;;;;;;;;;4811909;29;20104;-90
2023/01/30 08:01:39;;;;;;;9.82;4.32;;;;;;;;;;4810809;29;20175;-92
2023/01/30 08:04:06;;;;;;;16.92;4.05;;;;;;;;;;4781250;29;20488;-92
2023/01/30 08:06:37;;;;;;;16.67;4.95;;;;;;;;;;4811327;29;20067;-93
2023/01/30 08:09:03;;;;;;;21.52;5.03;;;;;;;;;;4811628;29;20467;-91
2023/01/30 08:11:30;;;;;;;17.50;4.60;;;;;;;;;;4811252;29;20092;-95
2023/01/30 08:13:56;;;;;;;21.10;5.30;;;;;;;;;;4811061;29;20123;-92
2023/01/30 08:16:24;;;;;;;20.42;4.22;;;;;;;;;;4811480;29;20051;-92
2023/01/30 08:18:50;;;;;;;14.05;4.95;;;;;;;;;;4809768;29;20607;-88
2023/01/30 08:21:17;;;;;;;12.65;3.90;;;;;;;;;;4809691;29;20094;-87
2023/01/30 08:23:43;;;;;;;22.98;5.68;;;;;;;;;;4779572;29;20093;-88
2023/01/30 08:26:11;;;;;;;18.30;4.85;;;;;;;;;;4810591;29;20058;-92
2023/01/30 08:28:39;;;;;;;19.45;4.45;;;;;;;;;;4781101;29;20523;-92
2023/01/30 08:31:08;;;;;;;36.22;5.70;;;;;;;;;;4810584;29;20107;-89
2023/01/30 08:33:35;;;;;;;18.08;5.47;;;;;;;;;;4809444;29;20093;-89
2023/01/30 08:36:01;;;;;;;20.63;5.13;;;;;;;;;;4809320;29;20054;-88
2023/01/30 08:38:27;;;;;;;23.48;5.88;;;;;;;;;;4809149;29;20054;-90
2023/01/30 08:40:59;;;;;;;23.38;5.88;;;;;;;;;;4810345;29;20054;-90
2023/01/30 08:43:26;;;;;;;26.02;6.30;;;;;;;;;;4811139;29;20489;-89
2023/01/30 08:45:53;;;;;;;17.15;4.88;;;;;;;;;;4809578;29;20063;-88
2023/01/30 08:48:19;;;;;;;16.45;3.78;;;;;;;;;;4809579;29;20061;-90
2023/01/30 08:50:45;;;;;;;17.42;2.85;;;;;;;;;;4810518;29;20054;-89
2023/01/30 08:53:11;;;;;;;16.58;5.05;;;;;;;;;;4809593;29;20061;-88
2023/01/30 08:55:38;;;;;;;18.40;4.35;;;;;;;;;;4794856;29;20058;-88
2023/01/30 08:58:04;;;;;;;18.80;4.50;;;;;;;;;;4809626;29;20466;-92
2023/01/30 09:00:30;;;;;;;22.05;3.85;;;;;;;;;;4810505;29;20050;-92
2023/01/30 09:02:57;;;;;;;32.63;4.78;;;;;;;;;;4780030;29;20066;-92
2023/01/30 09:05:23;;;;;;;20.42;5.43;;;;;;;;;;4809938;29;20571;-91
2023/01/30 09:07:50;;;;;;;12.27;3.55;;;;;;;;;;4809413;29;20122;-91
2023/01/30 09:10:16;;;;;;;27.30;5.45;;;;;;;;;;4809605;29;20493;-92
2023/01/30 09:12:43;;;;;;;19.13;4.50;;;;;;;;;;4809796;29;20054;-91
2023/01/30 09:15:10;;;;;;;24.67;4.47;;;;;;;;;;4810066;29;20401;-92
2023/01/30 09:17:37;;;;;;;14.30;4.53;;;;;;;;;;4779941;29;20050;-92
2023/01/30 09:20:04;;;;;;;19.38;4.68;;;;;;;;;;4810260;29;20089;-93
2023/01/30 09:22:31;;;;;;;18.90;4.93;;;;;;;;;;4809501;29;20050;-91
2023/01/30 09:24:58;;;;;;;22.42;4.45;;;;;;;;;;4809704;29;20496;-92
2023/01/30 09:27:24;;;;;;;19.02;3.80;;;;;;;;;;4809364;29;20054;-91
2023/01/30 09:29:50;;;;;;;31.38;6.78;;;;;;;;;;4809692;29;20088;-92
2023/01/30 09:32:16;;;;;;;16.27;4.95;;;;;;;;;;4809289;29;20064;-92
2023/01/30 09:34:43;;;;;;;14.48;4.80;;;;;;;;;;4779775;29;20058;-92
2023/01/30 09:37:09;;;;;;;18.20;4.00;;;;;;;;;;4780047;29;20050;-93
2023/01/30 09:39:35;;;;;;;32.58;5.75;;;;;;;;;;4780003;29;20104;-94
2023/01/30 09:42:07;;;;;;;15.10;5.22;;;;;;;;;;4809299;29;20055;-91
2023/01/30 09:44:51;;;;;;;22.73;4.82;;;;;;;;;;4809637;29;20145;-92
2023/01/30 09:47:23;;;;;;;24.55;6.28;;;;;;;;;;4809173;29;20058;-90
2023/01/30 09:49:49;;;;;;;27.90;6.72;;;;;;;;;;4809447;29;20054;-90
2023/01/30 09:52:15;;;;;;;23.05;4.55;;;;;;;;;;4809667;29;20050;-90
2023/01/30 09:54:43;;;;;;;23.30;5.03;;;;;;;;;;4808521;29;20094;-88
2023/01/30 09:57:11;;;;;;;14.20;4.30;;;;;;;;;;4808209;29;20119;-89
2023/01/30 09:59:47;;;;;;;15.70;5.78;;;;;;;;;;4808701;29;20057;-89
2023/01/30 10:02:23;;;;;;;17.75;4.65;;;;;;;;;;4808346;29;20051;-90
2023/01/30 10:04:55;;;;;;;17.73;4.85;;;;;;;;;;4808365;29;20051;-89
2023/01/30 10:07:31;;;;;;;26.00;3.60;;;;;;;;;;4808415;29;20504;-89
2023/01/30 10:10:16;;;;;;;17.92;5.03;;;;;;;;;;4808365;29;20063;-89
2023/01/30 10:13:14;;;;;;;20.67;5.57;;;;;;;;;;4808282;29;20118;-88
2023/01/30 10:15:59;;;;;;;21.60;5.05;;;;;;;;;;4764212;29;20193;-88
2023/01/30 10:18:27;;;;;;;20.23;4.75;;;;;;;;;;4808699;29;20500;-88
2023/01/30 10:21:20;;;;;;;18.60;4.57;;;;;;;;;;4808407;29;20608;-89
2023/01/30 10:23:55;;;;;;;2.38;1.20;;;;;;;;;;4808437;29;20058;-88
2023/01/30 10:26:23;;;;;;;4.35;1.80;;;;;;;;;;4811159;29;20062;-87
2023/01/30 10:28:55;;;;;;;5.05;1.20;;;;;;;;;;4811384;29;20054;-87
2023/01/30 10:31:25;;;;;;;5.15;1.35;;;;;;;;;;4826494;29;20404;-86
2023/01/30 10:33:51;;;;;;;5.03;1.42;;;;;;;;;;4811540;29;20058;-89
2023/01/30 10:36:24;;;;;;;7.72;1.42;;;;;;;;;;4826849;29;20141;-90
2023/01/30 10:38:52;;;;;;;5.15;1.50;;;;;;;;;;4811896;29;20134;-89
2023/01/30 10:41:29;;;;;;;4.50;1.25;;;;;;;;;;4812232;29;20059;-89
2023/01/30 10:44:04;;;;;;;7.85;1.67;;;;;;;;;;4827103;29;20630;-89
2023/01/30 10:46:43;;;;;;;4.47;1.77;;;;;;;;;;4812163;29;20595;-86
2023/01/30 10:49:18;;;;;;;9.05;2.17;;;;;;;;;;4811981;29;20058;-87
2023/01/30 10:51:49;;;;;;;6.28;2.28;;;;;;;;;;4826318;29;20046;-86
2023/01/30 10:54:36;;;;;;;16.00;2.63;;;;;;;;;;4826697;29;20572;-88
2023/01/30 10:57:03;;;;;;;10.05;3.50;;;;;;;;;;4812738;29;20135;-90
2023/01/30 10:59:29;;;;;;;10.57;3.78;;;;;;;;;;4826539;29;20047;-91
2023/01/30 11:01:59;;;;;;;11.00;2.78;;;;;;;;;;4812281;29;20089;-89
2023/01/30 11:04:39;;;;;;;16.10;3.15;;;;;;;;;;4811437;29;20050;-90
2023/01/30 11:07:05;;;;;;;14.18;3.90;;;;;;;;;;4826779;29;20078;-89
2023/01/30 11:09:38;;;;;;;15.25;2.83;;;;;;;;;;4796231;29;20149;-87
2023/01/30 11:12:05;;;;;;;14.73;3.50;;;;;;;;;;4825821;29;20090;-86
2023/01/30 11:14:49;;;;;;;10.23;3.45;;;;;;;;;;4810419;29;20059;-86
2023/01/30 11:17:18;;;;;;;11.70;4.28;;;;;;;;;;4810931;29;20133;-87
2023/01/30 11:19:45;;;;;;;7.60;2.55;;;;;;;;;;4825959;29;20055;-86
2023/01/30 11:22:14;;;;;;;12.25;3.35;;;;;;;;;;4810426;29;20393;-86
2023/01/30 11:24:44;;;;;;;18.20;3.22;;;;;;;;;;4825695;29;20050;-87
2023/01/30 11:27:19;;;;;;;7.97;2.75;;;;;;;;;;4810672;29;20054;-92
2023/01/30 11:29:46;;;;;;;11.13;2.63;;;;;;;;;;4826048;29;20068;-90
2023/01/30 11:32:23;;;;;;;14.38;3.55;;;;;;;;;;4811268;29;20534;-94
2023/01/30 11:35:03;;;;;;;6.25;2.35;;;;;;;;;;4812325;29;20484;-93
2023/01/30 11:37:35;;;;;;;10.98;3.25;;;;;;;;;;4810197;29;20141;-89
2023/01/30 11:40:07;;;;;;;11.15;2.42;;;;;;;;;;4826085;29;20062;-89
2023/01/30 11:42:34;;;;;;;7.28;2.97;;;;;;;;;;4811051;29;20098;-89
2023/01/30 11:45:01;;;;;;;15.80;2.65;;;;;;;;;;4811846;29;20050;-87
2023/01/30 11:47:28;;;;;;;11.10;2.97;;;;;;;;;;4811226;29;20089;-90
2023/01/30 11:49:57;;;;;;;7.75;3.08;;;;;;;;;;4811158;29;20094;-88
2023/01/30 11:52:26;;;;;;;16.23;2.72;;;;;;;;;;4826712;29;20133;-90
2023/01/30 11:54:53;;;;;;;9.73;2.95;;;;;;;;;;4811288;29;20408;-87
2023/01/30 11:57:20;;;;;;;12.23;2.75;;;;;;;;;;4826190;29;20129;-90
2023/01/30 11:59:48;;;;;;;13.55;3.03;;;;;;;;;;4811822;29;20103;-91
2023/01/30 12:02:20;;;;;;;10.68;3.80;;;;;;;;;;4811163;29;20069;-90
2023/01/30 12:04:49;;;;;;;10.55;2.83;;;;;;;;;;4812072;29;20053;-88
2023/01/30 12:07:16;;;;;;;17.83;4.55;;;;;;;;;;4810039;29;20063;-87
2023/01/30 12:09:42;;;;;;;15.25;3.92;;;;;;;;;;4810604;29;20090;-88
2023/01/30 12:12:27;;;;;;;15.75;3.10;;;;;;;;;;4825605;29;20408;-89
2023/01/30 12:14:58;;;;;;;12.55;3.20;;;;;;;;;;4810094;29;20428;-89
2023/01/30 12:17:32;;;;;;;17.02;3.72;;;;;;;;;;4810249;29;20078;-91
2023/01/30 12:20:14;;;;;;;16.65;3.97;;;;;;;;;;4825526;29;20061;-93
2023/01/30 12:22:49;;;;;;;12.82;3.85;;;;;;;;;;4810018;29;20090;-87
2023/01/30 12:25:21;;;;;;;9.07;3.58;;;;;;;;;;4809788;29;20050;-87
2023/01/30 12:28:26;;;;;;;13.10;3.08;;;7.40;99.90;;;;;;4809892;29;20085;-91
2023/01/30 12:31:05;;;;;;;11.88;3.63;;;;;;;;;;4782244;29;20062;-90
2023/01/30 12:33:35;;;;;;;13.70;3.08;;;;;;;;;;4809792;29;20120;-88
2023/01/30 12:36:23;;;;;;;18.85;4.95;;;;;;;;;;4809833;29;20062;-88
2023/01/30 12:39:06;;;;;;;18.90;3.88;;;;;;;;;;4810682;29;20062;-89
2023/01/30 12:41:35;;;;;;;18.92;4.05;;;;;;;;;;4810600;29;20127;-90
2023/01/30 12:44:07;;;;;;;17.80;5.38;;;;;;;;;;4809274;29;20057;-87
2023/01/30 12:46:33;;;;;;;18.27;4.30;;;;;;;;;;4809984;29;20472;-88
2023/01/30 12:49:05;;;;;;;12.75;3.10;;;;;;;;;;4809797;29;20080;-88
2023/01/30 12:51:48;;;;;;;14.98;4.53;;;;;;;;;;4809443;29;20113;-87
2023/01/30 12:54:52;;;;;;;33.92;5.80;;;7.30;99.90;;;;;;4825791;29;20092;-87
2023/01/30 12:57:24;;;;;;;12.10;3.58;;;;;;;;;;4809656;29;20062;-88
2023/01/30 13:00:08;;;;;;;15.38;4.03;;;;;;;;;;4809509;29;20050;-90
2023/01/30 13:02:59;;;;;;;10.88;3.90;;;7.40;99.90;;;;;;4809573;29;20508;-91
2023/01/30 13:05:34;;;;;;;21.17;4.50;;;;;;;;;;4809371;29;20512;-93
2023/01/30 13:08:09;;;;;;;13.60;4.70;;;;;;;;;;4809690;29;20054;-92
2023/01/30 13:10:38;;;;;;;25.05;4.43;;;;;;;;;;4809129;29;20066;-90
2023/01/30 13:13:17;;;;;;;16.48;4.28;;;;;;;;;;4809684;29;20057;-90
2023/01/30 13:15:58;;;;;;;18.17;4.45;;;;;;;;;;4809484;29;20097;-91
2023/01/30 13:18:26;;;;;;;15.88;4.30;;;;;;;;;;4809742;29;20062;-88
2023/01/30 13:21:12;;;;;;;20.75;4.50;;;;;;;;;;4824382;29;20089;-90
2023/01/30 13:23:53;;;;;;;21.27;5.45;;;;;;;;;;4809055;29;20054;-88
2023/01/30 13:26:22;;;;;;;31.95;6.57;;;;;;;;;;4809111;29;20527;-88
2023/01/30 13:28:50;;;;;;;19.35;5.22;;;;;;;;;;4808661;29;20432;-89
2023/01/30 13:31:23;;;;;;;24.83;6.90;;;;;;;;;;4808835;29;20115;-93
2023/01/30 13:33:50;;;;;;;21.75;5.43;;;;;;;;;;4809419;29;20058;-91
2023/01/30 13:36:19;;;;;;;36.33;8.98;;;;;;;;;;4809762;29;20103;-92
2023/01/30 13:38:56;;;;;;;33.55;7.43;;;;;;;;;;4809447;29;20508;-94
2023/01/30 13:41:27;;;;;;;47.63;5.50;;;;;;;;;;4809560;29;20192;-96
2023/01/30 13:43:54;;;;;;;19.17;4.97;;;;;;;;;;4809873;29;20058;-92
2023/01/30 13:46:28;;;;;;;21.33;5.07;;;;;;;;;;4809797;29;20054;-92
2023/01/30 13:49:17;;;;;;;20.88;5.25;;;;;;;;;;4810081;29;20159;-94
2023/01/30 13:51:43;;;;;;;21.33;6.10;;;;;;;;;;4795265;29;20504;-95
2023/01/30 13:54:12;;;;;;;40.25;6.78;;;;;;;;;;4809392;29;20050;-92
2023/01/30 13:56:39;;;;;;;26.92;6.30;;;;;;;;;;4808586;29;20060;-88
2023/01/30 13:59:17;;;;;;;28.48;6.82;;;;;;;;;;4808441;29;20150;-88
2023/01/30 14:02:05;;;;;;;33.08;6.72;;;;;;;;;;4808946;29;20069;-94
2023/01/30 14:04:41;;;;;;;30.85;6.25;;;;;;;;;;4798103;29;20065;-91
2023/01/30 14:07:20;;;;;;;40.22;6.57;;;;;;;;;;4809852;29;20453;-93
2023/01/30 14:09:51;;;;;;;31.05;5.78;;;;;;;;;;4809363;29;20078;-95
2023/01/30 14:12:25;;;;;;;26.90;5.80;;;;;;;;;;4824853;29;20523;-92
2023/01/30 14:15:06;;;;;;;30.23;6.63;;;;;;;;;;4808362;29;20067;-88
2023/01/30 14:17:32;;;;;;;24.08;6.45;;;;;;;;;;4807975;29;20524;-88
2023/01/30 14:19:59;;;;;;;47.10;5.82;;;;;;;;;;4807944;29;20070;-90
2023/01/30 14:22:33;;;;;;;27.58;6.53;;;;;;;;;;4809078;29;20050;-95
2023/01/30 14:25:18;;;;;;;36.42;6.35;;;;;;;;;;4809714;29;20058;-95
2023/01/30 14:27:44;;;;;;;26.95;6.88;;;;;;;;;;4809690;29;20176;-94
2023/01/30 14:30:36;;;;;;;26.25;5.60;;;;;;;;;;4809283;29;20123;-90
2023/01/30 14:33:04;;;;;;;32.13;6.35;;;;;;;;;;4756427;29;20059;-96
2023/01/30 14:35:32;;;;;;;19.40;5.07;;;;;;;;;;4791602;29;20061;-91
2023/01/30 14:38:09;;;;;;;30.20;6.63;;;;;;;;;;4791504;29;20058;-96
2023/01/30 14:40:36;;;;;;;21.25;5.65;;;;;;;;;;4791467;29;20051;-92
2023/01/30 14:43:12;;;;;;;35.92;5.95;;;;;;;;;;4791269;29;20055;-92
2023/01/30 14:45:46;;;;;;;25.10;6.70;;;;;;;;;;4791573;29;20059;-95
2023/01/30 14:48:32;;;;;;;21.15;6.35;;;;;;;;;;4791007;29;20125;-95
2023/01/30 14:51:25;;;;;;;22.90;6.53;;;;;;;;;;4767279;29;20420;-93
2023/01/30 14:53:57;;;;;;;30.48;6.53;;;;;;;;;;4754842;29;20054;-90